createdAt,value
2018-12-09T00:02:25.810Z,95976.42
2018-12-09T00:04:55.075Z,95979.21
2018-12-09T00:07:23.936Z,95967.39
2018-12-09T00:09:52.794Z,95949.17
2018-12-09T00:12:21.657Z,95956.95
2018-12-09T00:14:50.511Z,95946.38
2018-12-09T00:17:19.784Z,95923.41
2018-12-09T00:19:48.627Z,95938.52
2018-12-09T00:22:17.489Z,95926.61
2018-12-09T00:24:46.372Z,95918.15
2018-12-09T00:27:15.532Z,95905.97
2018-12-09T00:29:44.388Z,95897.78
2018-12-09T00:32:13.253Z,95878.27
2018-12-09T00:34:42.374Z,95869.06
2018-12-09T00:37:11.298Z,95870.23
2018-12-09T00:39:40.166Z,95869.58
2018-12-09T00:42:09.306Z,95856.38
2018-12-09T00:44:38.203Z,95848.56
2018-12-09T00:47:07.275Z,95859.02
2018-12-09T00:49:36.140Z,95864.55
2018-12-09T00:52:05.039Z,95838.83
2018-12-09T00:54:33.876Z,95829.64
2018-12-09T00:57:03.006Z,95828.95
2018-12-09T00:59:31.863Z,95828.27
2018-12-09T01:02:04.888Z,95823.91
2018-12-09T01:04:33.747Z,95821.48
2018-12-09T01:07:03.323Z,95816.63
2018-12-09T01:09:32.210Z,95797.56
2018-12-09T01:12:01.610Z,95821.54
2018-12-09T01:14:30.952Z,95825.50
2018-12-09T01:16:59.853Z,95829.78
2018-12-09T01:19:29.079Z,95803.16
2018-12-09T01:21:57.964Z,95813.52
2018-12-09T01:24:27.264Z,95822.66
2018-12-09T01:26:56.791Z,95815.38
2018-12-09T01:29:25.936Z,95812.08
2018-12-09T01:31:54.794Z,95789.55
2018-12-09T01:34:23.948Z,95816.72
2018-12-09T01:36:53.395Z,95806.40
2018-12-09T01:39:22.549Z,95791.41
2018-12-09T01:41:51.420Z,95787.06
2018-12-09T01:44:20.694Z,95767.73
2018-12-09T01:46:50.251Z,95765.67
2018-12-09T01:49:19.361Z,95777.09
2018-12-09T01:51:48.244Z,95759.00
2018-12-09T01:54:18.789Z,95739.52
2018-12-09T01:56:48.328Z,95722.59
2018-12-09T01:59:17.468Z,95744.16
2018-12-09T02:01:46.574Z,95724.66
2018-12-09T02:04:16.491Z,95748.13
2018-12-09T02:06:46.107Z,95747.36
2018-12-09T02:09:15.387Z,95735.16
2018-12-09T02:11:44.494Z,95736.52
2018-12-09T02:14:13.602Z,95720.49
2018-12-09T02:16:43.089Z,95711.83
2018-12-09T02:19:19.673Z,95720.66
2018-12-09T02:21:49.368Z,95699.60
2018-12-09T02:24:18.803Z,95708.63
2018-12-09T02:26:48.286Z,95699.59
2018-12-09T02:29:17.173Z,95693.90
2018-12-09T02:31:46.472Z,95712.32
2018-12-09T02:34:15.584Z,95704.30
2018-12-09T02:36:45.169Z,95693.87
2018-12-09T02:39:14.684Z,95704.94
2018-12-09T02:41:43.984Z,95698.06
2018-12-09T02:44:13.525Z,95689.58
2018-12-09T02:46:43.313Z,95692.69
2018-12-09T02:49:12.199Z,95686.27
2018-12-09T02:51:41.721Z,95678.46
2018-12-09T02:54:10.790Z,95679.20
2018-12-09T02:56:40.094Z,95687.50
2018-12-09T02:59:09.323Z,95676.78
2018-12-09T03:01:38.795Z,95675.67
2018-12-09T03:04:07.894Z,95670.69
2018-12-09T03:06:37.084Z,95684.18
2018-12-09T03:09:07.112Z,95670.23
2018-12-09T03:11:36.201Z,95674.39
2018-12-09T03:14:05.481Z,95659.73
2018-12-09T03:16:34.607Z,95660.94
2018-12-09T03:19:03.520Z,95649.95
2018-12-09T03:21:32.617Z,95649.69
2018-12-09T03:24:01.679Z,95660.13
2018-12-09T03:26:31.091Z,95668.56
2018-12-09T03:29:00.287Z,95659.06
2018-12-09T03:31:29.529Z,95680.56
2018-12-09T03:33:58.676Z,95664.06
2018-12-09T03:36:27.714Z,95682.53
2018-12-09T03:38:56.796Z,95685.25
2018-12-09T03:41:25.689Z,95667.98
2018-12-09T03:43:54.773Z,95680.08
2018-12-09T03:46:23.893Z,95677.23
2018-12-09T03:48:52.974Z,95674.44
2018-12-09T03:51:22.552Z,95675.32
2018-12-09T03:53:51.692Z,95670.03
2018-12-09T03:56:20.774Z,95668.98
2018-12-09T03:58:49.883Z,95677.44
2018-12-09T04:01:18.997Z,95666.80
2018-12-09T04:03:48.544Z,95686.15
2018-12-09T04:06:17.661Z,95668.86
2018-12-09T04:08:46.477Z,95673.41
2018-12-09T04:11:15.978Z,95664.48
2018-12-09T04:13:45.067Z,95666.33
2018-12-09T04:16:13.950Z,95663.63
2018-12-09T04:18:42.816Z,95664.86
2018-12-09T04:21:11.640Z,95666.88
2018-12-09T04:23:40.756Z,95669.82
2018-12-09T04:26:09.594Z,95700.42
2018-12-09T04:28:38.667Z,95684.06
2018-12-09T04:31:07.506Z,95641.78
2018-12-09T04:33:36.334Z,95606.16
2018-12-09T04:36:05.643Z,95615.52
2018-12-09T04:38:34.456Z,95650.88
2018-12-09T04:41:03.565Z,95651.51
2018-12-09T04:43:32.424Z,95652.39
2018-12-09T04:46:01.274Z,95643.97
2018-12-09T04:48:30.649Z,95651.16
2018-12-09T04:50:59.733Z,95658.64
2018-12-09T04:53:28.555Z,95666.57
2018-12-09T04:55:57.627Z,95652.12
2018-12-09T04:58:26.917Z,95656.03
2018-12-09T05:00:57.075Z,95679.97
2018-12-09T05:03:26.239Z,95683.77
2018-12-09T05:05:55.139Z,95679.17
2018-12-09T05:08:24.439Z,95689.19
2018-12-09T05:10:53.318Z,95706.39
2018-12-09T05:13:22.210Z,95708.19
2018-12-09T05:15:51.088Z,95718.86
2018-12-09T05:18:20.095Z,95717.45
2018-12-09T05:20:49.498Z,95721.92
2018-12-09T05:23:18.689Z,95733.05
2018-12-09T05:25:47.790Z,95722.64
2018-12-09T05:28:16.886Z,95733.94
2018-12-09T05:30:45.994Z,95723.70
2018-12-09T05:33:14.870Z,95732.34
2018-12-09T05:35:44.390Z,95736.50
2018-12-09T05:38:13.284Z,95737.54
2018-12-09T05:40:42.912Z,95743.41
2018-12-09T05:43:12.191Z,95749.95
2018-12-09T05:45:41.069Z,95735.79
2018-12-09T05:48:10.173Z,95740.69
2018-12-09T05:50:39.198Z,95745.05
2018-12-09T05:53:08.061Z,95733.02
2018-12-09T05:55:37.168Z,95746.45
2018-12-09T05:58:06.252Z,95739.51
2018-12-09T06:00:35.360Z,95746.35
2018-12-09T06:03:04.193Z,95746.27
2018-12-09T06:05:33.303Z,95742.25
2018-12-09T06:08:02.212Z,95725.02
2018-12-09T06:10:31.121Z,95723.75
2018-12-09T06:12:59.979Z,95724.44
2018-12-09T06:15:28.819Z,95729.83
2018-12-09T06:17:58.198Z,95727.30
2018-12-09T06:20:27.082Z,95734.00
2018-12-09T06:22:55.979Z,95729.05
2018-12-09T06:25:25.090Z,95735.50
2018-12-09T06:27:54.185Z,95735.89
2018-12-09T06:30:23.098Z,95740.73
2018-12-09T06:32:52.202Z,95762.78
2018-12-09T06:35:21.676Z,95769.73
2018-12-09T06:37:51.040Z,95760.95
2018-12-09T06:40:20.439Z,95772.77
2018-12-09T06:42:49.701Z,95763.94
2018-12-09T06:45:18.814Z,95758.52
2018-12-09T06:47:48.035Z,95763.48
2018-12-09T06:50:17.270Z,95769.84
2018-12-09T06:52:46.154Z,95765.76
2018-12-09T06:55:15.659Z,95769.55
2018-12-09T06:57:44.540Z,95770.05
2018-12-09T07:00:14.482Z,95758.39
2018-12-09T07:02:43.375Z,95767.15
2018-12-09T07:05:12.226Z,95770.01
2018-12-09T07:07:41.319Z,95781.59
2018-12-09T07:10:10.671Z,95787.61
2018-12-09T07:12:40.088Z,95789.05
2018-12-09T07:15:10.062Z,95791.92
2018-12-09T07:17:39.946Z,95787.12
2018-12-09T07:20:09.783Z,95798.09
2018-12-09T07:22:38.891Z,95809.40
2018-12-09T07:25:08.511Z,95819.62
2018-12-09T07:27:37.800Z,95817.67
2018-12-09T07:30:08.725Z,95818.12
2018-12-09T07:32:37.831Z,95817.20
2018-12-09T07:35:07.964Z,95815.83
2018-12-09T07:37:36.855Z,95819.02
2018-12-09T07:40:08.395Z,95834.08
2018-12-09T07:42:37.503Z,95831.87
2018-12-09T07:45:07.037Z,95834.68
2018-12-09T07:47:36.494Z,95845.66
2018-12-09T07:50:06.513Z,95850.56
2018-12-09T07:52:35.405Z,95867.33
2018-12-09T07:55:04.661Z,95870.58
2018-12-09T07:57:33.503Z,95868.45
2018-12-09T08:00:02.799Z,95878.09
2018-12-09T08:02:31.666Z,95864.94
2018-12-09T08:05:00.536Z,95869.87
2018-12-09T08:07:29.595Z,95872.64
2018-12-09T08:09:58.771Z,95898.73
2018-12-09T08:12:27.659Z,95908.14
2018-12-09T08:14:56.708Z,95918.69
2018-12-09T08:17:25.523Z,95922.45
2018-12-09T08:19:54.350Z,95908.03
2018-12-09T08:22:23.220Z,95907.77
2018-12-09T08:24:52.439Z,95924.97
2018-12-09T08:27:21.367Z,95929.27
2018-12-09T08:29:50.222Z,95950.33
2018-12-09T08:32:19.085Z,95932.20
2018-12-09T08:34:47.933Z,95950.51
2018-12-09T08:37:16.777Z,95964.53
2018-12-09T08:39:45.642Z,95964.25
2018-12-09T08:42:14.489Z,95965.66
2018-12-09T08:44:43.348Z,95970.56
2018-12-09T08:47:12.224Z,95976.98
2018-12-09T08:49:41.066Z,95978.16
2018-12-09T08:52:09.888Z,95974.20
2018-12-09T08:54:38.742Z,95972.92
2018-12-09T08:57:07.600Z,95980.06
2018-12-09T08:59:36.507Z,95974.70
2018-12-09T09:02:05.752Z,95960.12
2018-12-09T09:04:34.563Z,95958.29
2018-12-09T09:07:03.486Z,95972.11
2018-12-09T09:09:32.359Z,95979.09
2018-12-09T09:12:01.178Z,95983.17
2018-12-09T09:14:30.051Z,95982.47
2018-12-09T09:16:59.149Z,95983.27
2018-12-09T09:19:28.098Z,96010.44
2018-12-09T09:21:56.918Z,96005.39
2018-12-09T09:24:25.811Z,95998.16
2018-12-09T09:26:54.694Z,96009.74
2018-12-09T09:29:23.508Z,96013.96
2018-12-09T09:31:52.874Z,96011.82
2018-12-09T09:34:21.703Z,96011.60
2018-12-09T09:36:50.680Z,96025.59
2018-12-09T09:39:19.549Z,96035.80
2018-12-09T09:41:48.385Z,96025.53
2018-12-09T09:44:17.243Z,96028.77
2018-12-09T09:46:46.102Z,96037.31
2018-12-09T09:49:14.943Z,96039.11
2018-12-09T09:51:43.809Z,96032.97
2018-12-09T09:54:12.643Z,96036.20
2018-12-09T09:56:42.350Z,96034.62
2018-12-09T09:59:11.224Z,96029.98
2018-12-09T10:01:40.070Z,96031.09
2018-12-09T10:04:08.887Z,96038.13
2018-12-09T10:06:37.727Z,96029.65
2018-12-09T10:09:07.497Z,96031.39
2018-12-09T10:11:36.319Z,96028.42
2018-12-09T10:14:05.167Z,96034.62
2018-12-09T10:16:34.026Z,96028.88
2018-12-09T10:19:02.962Z,96027.85
2018-12-09T10:21:32.046Z,96023.08
2018-12-09T10:24:00.924Z,96018.26
2018-12-09T10:26:36.473Z,96029.30
2018-12-09T10:29:00.951Z,96023.05
2018-12-09T10:31:29.836Z,96019.94
2018-12-09T10:33:58.990Z,96022.08
2018-12-09T10:36:27.842Z,96011.81
2018-12-09T10:38:56.654Z,96002.44
2018-12-09T10:41:25.666Z,96019.53
2018-12-09T10:43:54.523Z,96017.89
2018-12-09T10:46:23.807Z,96021.80
2018-12-09T10:48:52.737Z,96015.39
2018-12-09T10:51:21.855Z,96019.26
2018-12-09T10:53:50.721Z,96019.80
2018-12-09T10:56:20.010Z,96015.39
2018-12-09T10:58:48.900Z,96021.39
2018-12-09T11:01:23.123Z,96014.98
2018-12-09T11:03:52.926Z,96012.16
2018-12-09T11:06:22.325Z,96017.48
2018-12-09T11:08:51.188Z,96015.67
2018-12-09T11:11:20.222Z,96017.96
2018-12-09T11:13:49.083Z,96012.63
2018-12-09T11:16:18.271Z,96023.27
2018-12-09T11:18:47.123Z,96020.23
2018-12-09T11:21:15.978Z,96023.06
2018-12-09T11:23:44.877Z,96017.39
2018-12-09T11:26:14.088Z,96011.05
2018-12-09T11:28:42.971Z,96021.94
2018-12-09T11:31:11.859Z,96013.34
2018-12-09T11:33:40.958Z,96017.31
2018-12-09T11:36:09.849Z,96016.15
2018-12-09T11:38:38.735Z,96007.19
2018-12-09T11:41:07.587Z,96015.80
2018-12-09T11:43:36.892Z,96009.61
2018-12-09T11:46:05.753Z,96000.70
2018-12-09T11:48:34.607Z,95985.95
2018-12-09T11:51:03.462Z,96006.39
2018-12-09T11:53:32.819Z,96004.25
2018-12-09T11:56:01.656Z,96012.62
2018-12-09T11:58:30.506Z,95998.20
2018-12-09T12:00:59.372Z,95992.42
2018-12-09T12:03:28.636Z,95983.00
2018-12-09T12:05:57.515Z,95973.80
2018-12-09T12:08:26.358Z,95987.25
2018-12-09T12:10:55.240Z,95981.34
2018-12-09T12:13:24.099Z,95982.94
2018-12-09T12:15:53.032Z,95983.41
2018-12-09T12:18:21.937Z,95986.53
2018-12-09T12:20:50.808Z,95987.96
2018-12-09T12:23:19.698Z,95996.51
2018-12-09T12:25:48.566Z,95985.13
2018-12-09T12:28:17.461Z,95992.08
2018-12-09T12:30:46.470Z,95991.78
2018-12-09T12:33:15.387Z,95993.80
2018-12-09T12:35:44.355Z,95990.44
2018-12-09T12:38:13.266Z,95996.66
2018-12-09T12:40:42.126Z,95992.95
2018-12-09T12:43:11.027Z,95997.41
2018-12-09T12:45:40.303Z,95991.86
2018-12-09T12:48:09.535Z,95999.67
2018-12-09T12:50:38.417Z,95997.97
2018-12-09T12:53:07.718Z,95997.70
2018-12-09T12:55:36.940Z,95995.94
2018-12-09T12:58:05.806Z,95996.58
2018-12-09T13:00:35.220Z,95989.89
2018-12-09T13:03:06.182Z,95988.30
2018-12-09T13:05:35.395Z,95984.55
2018-12-09T13:08:04.648Z,95989.75
2018-12-09T13:10:33.540Z,95985.20
2018-12-09T13:13:02.852Z,95979.83
2018-12-09T13:15:31.853Z,95975.75
2018-12-09T13:18:00.937Z,95976.80
2018-12-09T13:20:29.849Z,95975.31
2018-12-09T13:22:58.739Z,95975.67
2018-12-09T13:25:27.612Z,95977.36
2018-12-09T13:27:56.706Z,95986.49
2018-12-09T13:30:25.597Z,95978.06
2018-12-09T13:32:54.455Z,95977.47
2018-12-09T13:35:23.309Z,95985.58
2018-12-09T13:37:52.168Z,95983.94
2018-12-09T13:40:21.055Z,95986.20
2018-12-09T13:42:49.958Z,95989.86
2018-12-09T13:45:19.042Z,95978.80
2018-12-09T13:47:48.350Z,95981.72
2018-12-09T13:50:17.657Z,95985.34
2018-12-09T13:52:46.596Z,95986.17
2018-12-09T13:55:15.943Z,95985.55
2018-12-09T13:57:44.838Z,95987.48
2018-12-09T14:00:18.293Z,95989.55
2018-12-09T14:02:47.763Z,95988.25
2018-12-09T14:05:16.889Z,95984.96
2018-12-09T14:07:45.824Z,95987.64
2018-12-09T14:10:14.716Z,95997.27
2018-12-09T14:12:43.566Z,95990.30
2018-12-09T14:15:12.898Z,95998.36
2018-12-09T14:17:42.200Z,96002.16
2018-12-09T14:20:12.018Z,96007.23
2018-12-09T14:22:40.914Z,96006.72
2018-12-09T14:25:10.415Z,96015.98
2018-12-09T14:27:39.311Z,96009.22
2018-12-09T14:30:08.298Z,96005.84
2018-12-09T14:32:37.184Z,96006.94
2018-12-09T14:35:07.762Z,96004.34
2018-12-09T14:37:36.873Z,95998.17
2018-12-09T14:40:08.878Z,96010.08
2018-12-09T14:42:38.132Z,96005.56
2018-12-09T14:45:09.731Z,96009.75
2018-12-09T14:47:38.884Z,96007.13
2018-12-09T14:50:08.919Z,96007.53
2018-12-09T14:52:38.155Z,96002.02
2018-12-09T14:55:07.542Z,96003.61
2018-12-09T14:57:36.492Z,96005.25
2018-12-09T15:00:07.783Z,96003.67
2018-12-09T15:02:37.299Z,96021.18
2018-12-09T15:05:06.827Z,96016.55
2018-12-09T15:07:35.782Z,96019.73
2018-12-09T15:10:08.963Z,96024.42
2018-12-09T15:12:36.693Z,96015.05
2018-12-09T15:15:06.448Z,96029.73
2018-12-09T15:17:35.320Z,96035.52
2018-12-09T15:20:07.559Z,96024.02
2018-12-09T15:22:36.410Z,96035.10
2018-12-09T15:25:07.144Z,96025.78
2018-12-09T15:27:36.351Z,96027.63
2018-12-09T15:30:06.268Z,96028.59
2018-12-09T15:32:35.111Z,96031.70
2018-12-09T15:35:05.038Z,96042.73
2018-12-09T15:37:33.863Z,96044.27
2018-12-09T15:40:02.750Z,96050.78
2018-12-09T15:42:31.842Z,96052.41
2018-12-09T15:45:00.725Z,96047.05
2018-12-09T15:47:29.651Z,96048.09
2018-12-09T15:49:58.509Z,96052.39
2018-12-09T15:52:27.393Z,96057.38
2018-12-09T15:54:56.223Z,96055.58
2018-12-09T15:57:25.508Z,96063.66
2018-12-09T15:59:54.729Z,96066.28
2018-12-09T16:02:23.691Z,96065.95
2018-12-09T16:04:52.540Z,96073.33
2018-12-09T16:07:21.687Z,96067.85
2018-12-09T16:09:50.581Z,96067.66
2018-12-09T16:12:19.407Z,96070.73
2018-12-09T16:14:48.246Z,96078.66
2018-12-09T16:17:17.096Z,96080.39
2018-12-09T16:19:45.929Z,96079.75
2018-12-09T16:22:14.844Z,96068.16
2018-12-09T16:24:43.781Z,96074.30
2018-12-09T16:27:12.617Z,96079.67
2018-12-09T16:29:41.487Z,96073.68
2018-12-09T16:32:10.410Z,96080.98
2018-12-09T16:34:39.267Z,96082.39
2018-12-09T16:37:08.163Z,96083.52
2018-12-09T16:39:37.023Z,96090.55
2018-12-09T16:42:05.865Z,96090.13
2018-12-09T16:44:34.696Z,96085.19
2018-12-09T16:47:03.619Z,96094.91
2018-12-09T16:49:32.439Z,96092.73
2018-12-09T16:52:01.706Z,96099.09
2018-12-09T16:54:30.602Z,96111.08
2018-12-09T16:56:59.716Z,96104.38
2018-12-09T16:59:28.584Z,96120.30
2018-12-09T17:01:57.495Z,96119.99
2018-12-09T17:04:26.370Z,96120.97
2018-12-09T17:06:55.250Z,96120.11
2018-12-09T17:09:24.115Z,96127.33
2018-12-09T17:11:52.957Z,96133.17
2018-12-09T17:14:21.801Z,96141.52
2018-12-09T17:16:50.653Z,96147.02
2018-12-09T17:19:19.502Z,96146.22
2018-12-09T17:21:48.402Z,96158.68
2018-12-09T17:24:17.293Z,96156.95
2018-12-09T17:26:46.629Z,96162.41
2018-12-09T17:29:15.486Z,96168.11
2018-12-09T17:31:44.580Z,96161.45
2018-12-09T17:34:13.463Z,96164.27
2018-12-09T17:36:42.438Z,96166.14
2018-12-09T17:39:11.264Z,96174.87
2018-12-09T17:41:40.120Z,96178.92
2018-12-09T17:44:08.950Z,96180.33
2018-12-09T17:46:37.828Z,96178.33
2018-12-09T17:49:06.690Z,96188.24
2018-12-09T17:51:35.511Z,96182.73
2018-12-09T17:54:04.409Z,96200.91
2018-12-09T17:56:33.286Z,96194.83
2018-12-09T17:59:02.384Z,96204.20
2018-12-09T18:01:31.719Z,96193.25
2018-12-09T18:04:00.684Z,96176.11
2018-12-09T18:06:30.185Z,96206.97
2018-12-09T18:08:59.123Z,96201.64
2018-12-09T18:11:28.269Z,96210.39
2018-12-09T18:13:57.171Z,96214.05
2018-12-09T18:16:26.056Z,96215.95
2018-12-09T18:18:54.942Z,96225.78
2018-12-09T18:21:23.829Z,96236.78
2018-12-09T18:23:53.064Z,96232.20
2018-12-09T18:26:22.494Z,96233.41
2018-12-09T18:28:51.328Z,96251.22
2018-12-09T18:31:20.928Z,96258.42
2018-12-09T18:33:50.214Z,96264.30
2018-12-09T18:36:19.639Z,96278.41
2018-12-09T18:38:48.941Z,96289.85
2018-12-09T18:41:17.782Z,96304.95
2018-12-09T18:43:46.645Z,96313.92
2018-12-09T18:46:15.583Z,96302.17
2018-12-09T18:48:44.403Z,96321.61
2018-12-09T18:51:13.921Z,96330.33
2018-12-09T18:53:43.176Z,96329.56
2018-12-09T18:56:12.480Z,96333.64
2018-12-09T18:58:41.497Z,96346.45
2018-12-09T19:01:10.414Z,96349.27
2018-12-09T19:03:39.287Z,96352.69
2018-12-09T19:06:08.311Z,96355.72
2018-12-09T19:08:37.792Z,96363.64
2018-12-09T19:11:06.682Z,96366.19
2018-12-09T19:13:35.542Z,96372.80
2018-12-09T19:16:04.873Z,96372.03
2018-12-09T19:18:33.974Z,96378.42
2018-12-09T19:21:02.857Z,96389.86
2018-12-09T19:23:31.697Z,96392.73
2018-12-09T19:26:00.695Z,96407.39
2018-12-09T19:28:29.670Z,96412.73
2018-12-09T19:30:58.922Z,96413.17
2018-12-09T19:33:27.929Z,96419.69
2018-12-09T19:35:56.794Z,96412.79
2018-12-09T19:38:25.677Z,96422.28
2018-12-09T19:40:54.699Z,96429.05
2018-12-09T19:43:23.618Z,96427.33
2018-12-09T19:45:52.478Z,96436.84
2018-12-09T19:48:21.375Z,96452.59
2018-12-09T19:50:50.272Z,96450.91
2018-12-09T19:53:19.152Z,96468.09
2018-12-09T19:55:48.246Z,96463.52
2018-12-09T19:58:17.137Z,96471.73
2018-12-09T20:00:46.028Z,96465.69
2018-12-09T20:03:14.839Z,96470.77
2018-12-09T20:05:43.729Z,96466.10
2018-12-09T20:08:12.601Z,96463.22
2018-12-09T20:10:41.483Z,96490.20
2018-12-09T20:13:10.384Z,96486.81
2018-12-09T20:15:39.242Z,96477.80
2018-12-09T20:18:08.208Z,96477.55
2018-12-09T20:20:37.201Z,96479.98
2018-12-09T20:23:06.058Z,96479.98
2018-12-09T20:25:34.946Z,96489.86
2018-12-09T20:28:03.854Z,96495.58
2018-12-09T20:30:32.761Z,96497.88
2018-12-09T20:33:01.687Z,96498.84
2018-12-09T20:35:30.683Z,96503.25
2018-12-09T20:37:59.525Z,96504.44
2018-12-09T20:40:28.394Z,96501.20
2018-12-09T20:42:57.291Z,96510.86
2018-12-09T20:45:26.194Z,96518.95
2018-12-09T20:47:55.073Z,96523.48
2018-12-09T20:50:23.954Z,96528.13
2018-12-09T20:52:52.862Z,96533.52
2018-12-09T20:55:21.780Z,96546.75
2018-12-09T20:57:50.671Z,96545.44
2018-12-09T21:00:19.613Z,96550.20
2018-12-09T21:02:48.567Z,96549.90
2018-12-09T21:05:17.426Z,96564.52
2018-12-09T21:07:46.366Z,96557.26
2018-12-09T21:10:15.270Z,96558.48
2018-12-09T21:12:44.078Z,96564.54
2018-12-09T21:15:13.324Z,96575.48
2018-12-09T21:17:42.190Z,96573.34
2018-12-09T21:20:11.052Z,96582.26
2018-12-09T21:22:39.920Z,96590.20
2018-12-09T21:25:09.423Z,96595.94
2018-12-09T21:27:38.247Z,96593.95
2018-12-09T21:30:07.541Z,96600.13
2018-12-09T21:32:36.427Z,96617.03
2018-12-09T21:35:06.025Z,96625.27
2018-12-09T21:37:34.902Z,96629.43
2018-12-09T21:40:04.438Z,96622.63
2018-12-09T21:42:35.022Z,96630.14
2018-12-09T21:45:04.299Z,96629.08
2018-12-09T21:47:33.151Z,96635.88
2018-12-09T21:50:02.000Z,96635.06
2018-12-09T21:52:30.838Z,96638.14
2018-12-09T21:54:59.734Z,96641.83
2018-12-09T21:57:28.613Z,96639.59
2018-12-09T21:59:57.624Z,96646.50
2018-12-09T22:02:26.426Z,96653.85
2018-12-09T22:04:55.278Z,96657.78
2018-12-09T22:07:24.152Z,96655.77
2018-12-09T22:09:53.045Z,96661.52
2018-12-09T22:12:22.334Z,96670.68
2018-12-09T22:14:51.586Z,96673.09
2018-12-09T22:17:20.435Z,96679.66
2018-12-09T22:19:49.282Z,96677.39
2018-12-09T22:22:18.148Z,96686.95
2018-12-09T22:24:47.031Z,96683.20
2018-12-09T22:27:16.331Z,96693.67
2018-12-09T22:29:45.669Z,96699.39
2018-12-09T22:32:14.935Z,96699.02
2018-12-09T22:34:44.076Z,96706.76
2018-12-09T22:37:13.146Z,96717.12
2018-12-09T22:39:42.009Z,96724.03
2018-12-09T22:42:10.855Z,96726.77
2018-12-09T22:44:39.702Z,96727.48
2018-12-09T22:47:08.586Z,96728.44
2018-12-09T22:49:37.886Z,96738.20
2018-12-09T22:52:06.783Z,96743.09
2018-12-09T22:54:35.643Z,96733.37
2018-12-09T22:57:04.932Z,96740.38
2018-12-09T22:59:33.775Z,96746.31
2018-12-09T23:02:08.544Z,96744.64
2018-12-09T23:04:37.794Z,96749.63
2018-12-09T23:07:12.309Z,96765.23
2018-12-09T23:09:41.205Z,96750.92
2018-12-09T23:12:10.080Z,96761.66
2018-12-09T23:14:39.399Z,96761.77
2018-12-09T23:17:08.339Z,96762.13
2018-12-09T23:19:37.402Z,96766.17
2018-12-09T23:22:06.247Z,96773.67
2018-12-09T23:24:35.091Z,96767.37
2018-12-09T23:27:04.461Z,96773.08
2018-12-09T23:29:33.278Z,96775.47
2018-12-09T23:32:02.141Z,96782.87
2018-12-09T23:34:31.001Z,96792.50
2018-12-09T23:36:59.834Z,96786.09
2018-12-09T23:39:28.716Z,96796.69
2018-12-09T23:41:57.579Z,96797.28
2018-12-09T23:44:26.418Z,96802.88
2018-12-09T23:46:55.476Z,96797.16
2018-12-09T23:49:24.323Z,96799.07
2018-12-09T23:51:53.154Z,96800.27
2018-12-09T23:54:21.975Z,96807.28
2018-12-09T23:56:50.859Z,96815.15
2018-12-09T23:59:19.711Z,96812.65
